Time,TemperatureF,DewpointF,PressureIn,WindDirection,WindDirectionDegrees,WindSpeedMPH,WindSpeedGustMPH,Humidity,HourlyPrecipIn,Conditions,Clouds,dailyrainin,SoftwareType,DateUTC
2013-05-27 00:03:00,42.5,40.0,30.25,SW,233,1.0,2.0,90,0.00,,,0.00,weatherlink.com 1.10,2013-05-27 04:03:00,
2013-05-27 00:18:00,42.0,40.0,30.25,SW,225,2.0,4.0,91,0.00,,,0.00,weatherlink.com 1.10,2013-05-27 04:18:00,
2013-05-27 00:33:00,41.9,40.0,30.26,South,182,1.0,4.0,91,0.00,,,0.00,weatherlink.com 1.10,2013-05-27 04:33:00,
2013-05-27 00:48:00,42.0,39.0,30.26,South,182,0.0,2.0,90,0.00,,,0.00,weatherlink.com 1.10,2013-05-27 04:48:00,
2013-05-27 01:03:00,42.0,39.0,30.26,SSW,194,0.0,4.0,90,0.00,,,0.00,weatherlink.com 1.10,2013-05-27 05:03:00,
2013-05-27 01:18:00,41.6,39.0,30.26,SSW,194,0.0,1.0,90,0.00,,,0.00,weatherlink.com 1.10,2013-05-27 05:18:00,
2013-05-27 01:33:00,41.2,39.0,30.25,South,188,0.0,2.0,91,0.00,,,0.00,weatherlink.com 1.10,2013-05-27 05:33:00,
2013-05-27 01:48:00,41.3,39.0,30.25,South,191,2.0,5.0,91,0.00,,,0.00,weatherlink.com 1.10,2013-05-27 05:48:00,
2013-05-27 02:03:00,41.1,39.0,30.26,South,187,0.0,1.0,91,0.00,,,0.00,weatherlink.com 1.10,2013-05-27 06:03:00,
2013-05-27 02:18:00,40.9,39.0,30.26,South,173,1.0,4.0,92,0.00,,,0.00,weatherlink.com 1.10,2013-05-27 06:18:00,
2013-05-27 02:33:00,40.7,38.0,30.25,South,181,1.0,2.0,91,0.00,,,0.00,weatherlink.com 1.10,2013-05-27 06:33:00,
2013-05-27 02:48:00,40.4,38.0,30.25,SSW,192,0.0,4.0,91,0.00,,,0.00,weatherlink.com 1.10,2013-05-27 06:48:00,
2013-05-27 03:03:00,40.1,38.0,30.25,SSW,192,2.0,2.0,92,0.00,,,0.00,weatherlink.com 1.10,2013-05-27 07:03:00,
2013-05-27 03:18:00,39.8,38.0,30.25,South,190,1.0,3.0,92,0.00,,,0.00,weatherlink.com 1.10,2013-05-27 07:18:00,
2013-05-27 03:33:00,39.7,38.0,30.26,South,190,1.0,5.0,92,0.00,,,0.00,weatherlink.com 1.10,2013-05-27 07:33:00,
2013-05-27 03:48:00,39.6,38.0,30.25,South,188,1.0,5.0,92,0.00,,,0.00,weatherlink.com 1.10,2013-05-27 07:48:00,
2013-05-27 04:03:00,39.5,37.0,30.25,South,186,0.0,6.0,92,0.00,,,0.00,weatherlink.com 1.10,2013-05-27 08:03:00,
2013-05-27 04:18:00,39.2,37.0,30.26,South,185,1.0,3.0,92,0.00,,,0.00,weatherlink.com 1.10,2013-05-27 08:18:00,
2013-05-27 04:33:00,39.0,37.0,30.25,South,169,0.0,4.0,91,0.00,,,0.00,weatherlink.com 1.10,2013-05-27 08:33:00,
2013-05-27 04:48:00,38.7,37.0,30.25,South,171,0.0,4.0,92,0.00,,,0.00,weatherlink.com 1.10,2013-05-27 08:48:00,
2013-05-27 05:03:00,38.3,36.0,30.24,South,172,1.0,4.0,92,0.00,,,0.00,weatherlink.com 1.10,2013-05-27 09:03:00,
2013-05-27 05:18:00,38.0,36.0,30.25,South,173,0.0,4.0,93,0.00,,,0.00,weatherlink.com 1.10,2013-05-27 09:18:00,
2013-05-27 05:33:00,37.9,36.0,30.25,South,169,0.0,2.0,93,0.00,,,0.00,weatherlink.com 1.10,2013-05-27 09:33:00,
2013-05-27 05:48:00,38.0,36.0,30.25,SSW,196,0.0,6.0,93,0.00,,,0.00,weatherlink.com 1.10,2013-05-27 09:48:00,
2013-05-27 06:03:00,38.0,36.0,30.25,SSE,161,0.0,5.0,92,0.00,,,0.00,weatherlink.com 1.10,2013-05-27 10:03:00,
2013-05-27 06:18:00,38.1,36.0,30.25,South,171,1.0,6.0,92,0.00,,,0.00,weatherlink.com 1.10,2013-05-27 10:18:00,
2013-05-27 06:33:00,38.5,36.0,30.26,South,169,0.0,4.0,92,0.00,,,0.00,weatherlink.com 1.10,2013-05-27 10:33:00,
2013-05-27 06:48:00,39.5,37.0,30.26,South,175,2.0,7.0,90,0.00,,,0.00,weatherlink.com 1.10,2013-05-27 10:48:00,
2013-05-27 07:03:00,40.8,38.0,30.25,South,183,2.0,6.0,89,0.00,,,0.00,weatherlink.com 1.10,2013-05-27 11:03:00,
2013-05-27 07:18:00,42.4,39.0,30.25,SSW,200,2.0,5.0,87,0.00,,,0.00,weatherlink.com 1.10,2013-05-27 11:18:00,
2013-05-27 07:33:00,43.7,40.0,30.25,SW,226,3.0,7.0,85,0.00,,,0.00,weatherlink.com 1.10,2013-05-27 11:33:00,
2013-05-27 07:48:00,45.3,40.0,30.26,South,190,2.0,8.0,83,0.00,,,0.00,weatherlink.com 1.10,2013-05-27 11:48:00,
2013-05-27 08:03:00,47.1,41.0,30.27,South,177,3.0,6.0,80,0.00,,,0.00,weatherlink.com 1.10,2013-05-27 12:03:00,
2013-05-27 08:19:00,48.8,42.0,30.27,South,186,2.0,5.0,78,0.00,,,0.00,weatherlink.com 1.10,2013-05-27 12:19:00,
2013-05-27 08:34:00,50.6,43.0,30.27,SSW,201,3.0,6.0,76,0.00,,,0.00,weatherlink.com 1.10,2013-05-27 12:34:00,
2013-05-27 08:49:00,52.4,44.0,30.27,South,171,4.0,6.0,72,0.00,,,0.00,weatherlink.com 1.10,2013-05-27 12:49:00,
2013-05-27 09:04:00,54.5,44.0,30.27,SSE,167,5.0,5.0,67,0.00,,,0.00,weatherlink.com 1.10,2013-05-27 13:04:00,
2013-05-27 09:19:00,56.5,43.0,30.26,South,188,2.0,6.0,62,0.00,,,0.00,weatherlink.com 1.10,2013-05-27 13:19:00,
2013-05-27 09:34:00,58.6,44.0,30.26,SSW,213,1.0,5.0,59,0.00,,,0.00,weatherlink.com 1.10,2013-05-27 13:34:00,
2013-05-27 09:49:00,59.8,45.0,30.26,SSW,196,2.0,5.0,58,0.00,,,0.00,weatherlink.com 1.10,2013-05-27 13:49:00,
2013-05-27 10:04:00,61.0,45.0,30.26,WSW,254,1.0,4.0,55,0.00,,,0.00,weatherlink.com 1.10,2013-05-27 14:04:00,
2013-05-27 10:19:00,62.1,43.0,30.26,SE,142,1.0,6.0,49,0.00,,,0.00,weatherlink.com 1.10,2013-05-27 14:19:00,
2013-05-27 10:34:00,63.1,43.0,30.25,SSW,195,5.0,6.0,48,0.00,,,0.00,weatherlink.com 1.10,2013-05-27 14:34:00,
2013-05-27 10:49:00,63.4,42.0,30.24,SSW,213,3.0,6.0,45,0.00,,,0.00,weatherlink.com 1.10,2013-05-27 14:49:00,
2013-05-27 11:04:00,63.5,42.0,30.24,SSW,194,2.0,7.0,45,0.00,,,0.00,weatherlink.com 1.10,2013-05-27 15:04:00,
2013-05-27 11:19:00,64.7,39.0,30.24,ESE,122,4.0,7.0,39,0.00,,,0.00,weatherlink.com 1.10,2013-05-27 15:19:00,
2013-05-27 11:34:00,65.7,41.0,30.23,SSW,207,3.0,7.0,40,0.00,,,0.00,weatherlink.com 1.10,2013-05-27 15:34:00,
2013-05-27 11:49:00,66.4,40.0,30.24,WNW,292,2.0,7.0,38,0.00,,,0.00,weatherlink.com 1.10,2013-05-27 15:49:00,
2013-05-27 12:04:00,66.8,40.0,30.24,WSW,256,1.0,7.0,38,0.00,,,0.00,weatherlink.com 1.10,2013-05-27 16:04:00,
2013-05-27 12:19:00,64.5,46.0,30.23,East,94,3.0,8.0,52,0.00,,,0.00,weatherlink.com 1.10,2013-05-27 16:19:00,
2013-05-27 12:34:00,63.2,46.0,30.23,North,5,2.0,11.0,53,0.00,,,0.00,weatherlink.com 1.10,2013-05-27 16:34:00,
2013-05-27 12:49:00,62.7,45.0,30.22,North,355,6.0,9.0,52,0.00,,,0.00,weatherlink.com 1.10,2013-05-27 16:49:00,
2013-05-27 13:05:00,62.4,44.0,30.21,North,355,6.0,9.0,51,0.00,,,0.00,weatherlink.com 1.10,2013-05-27 17:05:00,
2013-05-27 13:20:00,63.4,44.0,30.21,WNW,283,4.0,9.0,49,0.00,,,0.00,weatherlink.com 1.10,2013-05-27 17:20:00,
2013-05-27 13:35:00,63.5,43.0,30.20,ENE,57,2.0,9.0,48,0.00,,,0.00,weatherlink.com 1.10,2013-05-27 17:35:00,
2013-05-27 13:50:00,63.5,44.0,30.20,NW,325,5.0,10.0,49,0.00,,,0.00,weatherlink.com 1.10,2013-05-27 17:50:00,
2013-05-27 14:05:00,63.4,43.0,30.20,NNE,18,7.0,11.0,48,0.00,,,0.00,weatherlink.com 1.10,2013-05-27 18:05:00,
2013-05-27 14:20:00,64.0,44.0,30.19,NNE,21,8.0,10.0,48,0.00,,,0.00,weatherlink.com 1.10,2013-05-27 18:20:00,
2013-05-27 14:35:00,64.2,43.0,30.18,NNE,12,7.0,11.0,47,0.00,,,0.00,weatherlink.com 1.10,2013-05-27 18:35:00,
2013-05-27 14:50:00,65.0,45.0,30.17,ENE,63,1.0,9.0,48,0.00,,,0.00,weatherlink.com 1.10,2013-05-27 18:50:00,
2013-05-27 15:05:00,63.7,43.0,30.17,ENE,60,7.0,11.0,48,0.00,,,0.00,weatherlink.com 1.10,2013-05-27 19:05:00,
2013-05-27 15:20:00,63.5,43.0,30.16,NE,55,5.0,10.0,48,0.00,,,0.00,weatherlink.com 1.10,2013-05-27 19:20:00,
2013-05-27 15:35:00,63.7,43.0,30.16,NE,49,8.0,8.0,48,0.00,,,0.00,weatherlink.com 1.10,2013-05-27 19:35:00,
2013-05-27 15:50:00,63.7,42.0,30.16,NE,48,6.0,11.0,46,0.00,,,0.00,weatherlink.com 1.10,2013-05-27 19:50:00,
2013-05-27 16:05:00,62.2,42.0,30.16,NNE,19,2.0,9.0,48,0.00,,,0.00,weatherlink.com 1.10,2013-05-27 20:05:00,
2013-05-27 16:20:00,61.1,41.0,30.16,NE,34,3.0,7.0,48,0.00,,,0.00,weatherlink.com 1.10,2013-05-27 20:20:00,
2013-05-27 16:35:00,60.5,42.0,30.16,NE,46,4.0,8.0,50,0.00,,,0.00,weatherlink.com 1.10,2013-05-27 20:35:00,
2013-05-27 16:50:00,60.8,41.0,30.16,NNW,346,2.0,8.0,49,0.00,,,0.00,weatherlink.com 1.10,2013-05-27 20:50:00,
2013-05-27 17:05:00,62.0,41.0,30.15,ENE,73,4.0,5.0,47,0.00,,,0.00,weatherlink.com 1.10,2013-05-27 21:05:00,
2013-05-27 17:20:00,62.5,43.0,30.16,NW,306,1.0,5.0,49,0.00,,,0.00,weatherlink.com 1.10,2013-05-27 21:20:00,
2013-05-27 17:35:00,62.5,42.0,30.16,NNE,27,5.0,6.0,47,0.00,,,0.00,weatherlink.com 1.10,2013-05-27 21:35:00,
2013-05-27 17:50:00,62.1,42.0,30.16,North,5,2.0,5.0,48,0.00,,,0.00,weatherlink.com 1.10,2013-05-27 21:50:00,
2013-05-27 18:05:00,61.6,43.0,30.16,NNW,337,1.0,6.0,50,0.00,,,0.00,weatherlink.com 1.10,2013-05-27 22:05:00,
2013-05-27 18:20:00,60.8,40.0,30.16,North,355,2.0,4.0,46,0.00,,,0.00,weatherlink.com 1.10,2013-05-27 22:20:00,
2013-05-27 18:35:00,60.7,41.0,30.16,North,355,1.0,2.0,48,0.00,,,0.00,weatherlink.com 1.10,2013-05-27 22:35:00,
2013-05-27 18:50:00,60.6,41.0,30.15,North,5,0.0,2.0,48,0.00,,,0.00,weatherlink.com 1.10,2013-05-27 22:50:00,
2013-05-27 19:05:00,60.8,42.0,30.14,North,5,0.0,1.0,50,0.00,,,0.00,weatherlink.com 1.10,2013-05-27 23:05:00,
2013-05-27 19:20:00,60.6,44.0,30.13,NE,49,1.0,5.0,54,0.00,,,0.00,weatherlink.com 1.10,2013-05-27 23:20:00,
2013-05-27 19:35:00,60.1,45.0,30.12,ENE,59,2.0,5.0,57,0.00,,,0.00,weatherlink.com 1.10,2013-05-27 23:35:00,
2013-05-27 19:50:00,59.7,45.0,30.12,East,90,1.0,4.0,58,0.00,,,0.00,weatherlink.com 1.10,2013-05-27 23:50:00,
2013-05-27 20:05:00,59.5,46.0,30.12,East,90,0.0,1.0,61,0.00,,,0.00,weatherlink.com 1.10,2013-05-28 00:05:00,
2013-05-27 20:20:00,59.1,45.0,30.11,East,96,0.0,2.0,60,0.00,,,0.00,weatherlink.com 1.10,2013-05-28 00:20:00,
2013-05-27 20:35:00,59.0,45.0,30.11,East,101,2.0,2.0,60,0.00,,,0.00,weatherlink.com 1.10,2013-05-28 00:35:00,
2013-05-27 20:50:00,58.8,45.0,30.11,East,101,0.0,4.0,60,0.00,,,0.00,weatherlink.com 1.10,2013-05-28 00:50:00,
2013-05-27 21:05:00,58.5,44.0,30.10,SE,132,0.0,2.0,60,0.00,,,0.00,weatherlink.com 1.10,2013-05-28 01:05:00,
2013-05-27 21:20:00,58.0,46.0,30.11,ESE,104,0.0,1.0,64,0.00,,,0.00,weatherlink.com 1.10,2013-05-28 01:20:00,
2013-05-27 21:35:00,57.8,45.0,30.11,ESE,109,1.0,3.0,63,0.00,,,0.00,weatherlink.com 1.10,2013-05-28 01:35:00,
2013-05-27 21:50:00,57.6,45.0,30.10,East,94,1.0,4.0,64,0.00,,,0.00,weatherlink.com 1.10,2013-05-28 01:50:00,
2013-05-27 22:05:00,56.8,46.0,30.10,East,96,2.0,5.0,67,0.00,,,0.00,weatherlink.com 1.10,2013-05-28 02:05:00,
2013-05-27 22:20:00,56.6,46.0,30.10,ESE,111,1.0,3.0,67,0.00,,,0.00,weatherlink.com 1.10,2013-05-28 02:20:00,
2013-05-27 22:35:00,56.4,47.0,30.10,ESE,115,0.0,2.0,70,0.00,,,0.00,weatherlink.com 1.10,2013-05-28 02:35:00,
2013-05-27 22:50:00,55.9,47.0,30.10,ESE,116,0.0,4.0,72,0.00,,,0.00,weatherlink.com 1.10,2013-05-28 02:50:00,
2013-05-27 23:05:00,55.4,48.0,30.11,SSE,148,1.0,5.0,75,0.01,,,0.01,weatherlink.com 1.10,2013-05-28 03:05:00,
2013-05-27 23:20:00,54.6,48.0,30.11,SSE,153,1.0,5.0,77,0.02,,,0.02,weatherlink.com 1.10,2013-05-28 03:20:00,
2013-05-27 23:35:00,53.9,48.0,30.11,SE,144,0.0,4.0,81,0.02,,,0.02,weatherlink.com 1.10,2013-05-28 03:35:00,
2013-05-27 23:50:00,53.2,49.0,30.10,ESE,121,5.0,6.0,84,0.03,,,0.03,weatherlink.com 1.10,2013-05-28 03:50:00,